sensor_id;sensor_type;location;lat;lon;timestamp;P1;durP1;ratioP1;P2;durP2;ratioP2
46777;SDS011;32536;47.128;8.746;2023-02-07T00:01:26;5.10;;;2.97;;
46777;SDS011;32536;47.128;8.746;2023-02-07T00:03:54;4.53;;;2.42;;
46777;SDS011;32536;47.128;8.746;2023-02-07T00:06:22;2.13;;;1.33;;
46777;SDS011;32536;47.128;8.746;2023-02-07T00:08:56;4.63;;;2.70;;
46777;SDS011;32536;47.128;8.746;2023-02-07T00:11:25;6.85;;;3.45;;
46777;SDS011;32536;47.128;8.746;2023-02-07T00:13:53;6.72;;;3.60;;
46777;SDS011;32536;47.128;8.746;2023-02-07T00:16:22;6.57;;;3.85;;
46777;SDS011;32536;47.128;8.746;2023-02-07T00:18:50;6.35;;;3.42;;
46777;SDS011;32536;47.128;8.746;2023-02-07T00:21:19;6.20;;;3.22;;
46777;SDS011;32536;47.128;8.746;2023-02-07T00:23:48;4.88;;;2.53;;
46777;SDS011;32536;47.128;8.746;2023-02-07T00:26:16;3.33;;;1.98;;
46777;SDS011;32536;47.128;8.746;2023-02-07T00:28:45;5.78;;;3.30;;
46777;SDS011;32536;47.128;8.746;2023-02-07T00:31:14;3.88;;;1.77;;
46777;SDS011;32536;47.128;8.746;2023-02-07T00:33:55;8.20;;;4.32;;
46777;SDS011;32536;47.128;8.746;2023-02-07T00:36:26;7.63;;;4.93;;
46777;SDS011;32536;47.128;8.746;2023-02-07T00:38:55;7.80;;;4.43;;
46777;SDS011;32536;47.128;8.746;2023-02-07T00:41:24;7.50;;;4.45;;
46777;SDS011;32536;47.128;8.746;2023-02-07T00:43:52;7.72;;;4.13;;
46777;SDS011;32536;47.128;8.746;2023-02-07T00:46:20;7.90;;;4.28;;
46777;SDS011;32536;47.128;8.746;2023-02-07T00:48:46;10.82;;;5.40;;
46777;SDS011;32536;47.128;8.746;2023-02-07T00:51:13;8.70;;;4.28;;
46777;SDS011;32536;47.128;8.746;2023-02-07T00:53:40;8.82;;;5.10;;
46777;SDS011;32536;47.128;8.746;2023-02-07T00:56:09;9.05;;;5.05;;
46777;SDS011;32536;47.128;8.746;2023-02-07T00:58:37;9.57;;;5.30;;
46777;SDS011;32536;47.128;8.746;2023-02-07T01:01:03;8.50;;;4.05;;
46777;SDS011;32536;47.128;8.746;2023-02-07T01:03:30;7.72;;;3.95;;
46777;SDS011;32536;47.128;8.746;2023-02-07T01:05:57;5.47;;;2.97;;
46777;SDS011;32536;47.128;8.746;2023-02-07T01:08:24;6.18;;;3.60;;
46777;SDS011;32536;47.128;8.746;2023-02-07T01:10:51;7.00;;;3.58;;
46777;SDS011;32536;47.128;8.746;2023-02-07T01:13:17;8.30;;;5.25;;
46777;SDS011;32536;47.128;8.746;2023-02-07T01:15:45;9.93;;;4.72;;
46777;SDS011;32536;47.128;8.746;2023-02-07T01:18:13;7.95;;;4.03;;
46777;SDS011;32536;47.128;8.746;2023-02-07T01:20:40;8.27;;;6.13;;
46777;SDS011;32536;47.128;8.746;2023-02-07T01:23:07;7.53;;;3.80;;
46777;SDS011;32536;47.128;8.746;2023-02-07T01:25:36;7.35;;;3.85;;
46777;SDS011;32536;47.128;8.746;2023-02-07T01:28:04;7.35;;;3.50;;
46777;SDS011;32536;47.128;8.746;2023-02-07T01:30:31;5.75;;;3.13;;
46777;SDS011;32536;47.128;8.746;2023-02-07T01:32:57;7.25;;;4.07;;
46777;SDS011;32536;47.128;8.746;2023-02-07T01:35:24;5.45;;;2.53;;
46777;SDS011;32536;47.128;8.746;2023-02-07T01:37:51;4.40;;;2.50;;
46777;SDS011;32536;47.128;8.746;2023-02-07T01:40:18;5.32;;;2.88;;
46777;SDS011;32536;47.128;8.746;2023-02-07T01:42:45;7.28;;;3.65;;
46777;SDS011;32536;47.128;8.746;2023-02-07T01:45:17;7.63;;;4.20;;
46777;SDS011;32536;47.128;8.746;2023-02-07T01:48:05;8.75;;;4.38;;
46777;SDS011;32536;47.128;8.746;2023-02-07T01:50:38;7.03;;;3.55;;
46777;SDS011;32536;47.128;8.746;2023-02-07T01:53:10;6.70;;;3.92;;
46777;SDS011;32536;47.128;8.746;2023-02-07T01:55:40;6.80;;;3.78;;
46777;SDS011;32536;47.128;8.746;2023-02-07T01:58:08;6.25;;;4.45;;
46777;SDS011;32536;47.128;8.746;2023-02-07T02:00:35;8.68;;;3.97;;
46777;SDS011;32536;47.128;8.746;2023-02-07T02:03:03;5.35;;;3.30;;
46777;SDS011;32536;47.128;8.746;2023-02-07T02:05:31;6.45;;;2.70;;
46777;SDS011;32536;47.128;8.746;2023-02-07T02:08:00;8.18;;;4.70;;
46777;SDS011;32536;47.128;8.746;2023-02-07T02:10:43;6.88;;;3.92;;
46777;SDS011;32536;47.128;8.746;2023-02-07T02:16:39;5.85;;;2.30;;
46777;SDS011;32536;47.128;8.746;2023-02-07T02:19:33;4.85;;;3.38;;
46777;SDS011;32536;47.128;8.746;2023-02-07T02:37:08;4.15;;;2.35;;
46777;SDS011;32536;47.128;8.746;2023-02-07T02:46:08;4.20;;;2.30;;
46777;SDS011;32536;47.128;8.746;2023-02-07T02:48:44;6.00;;;2.50;;
46777;SDS011;32536;47.128;8.746;2023-02-07T02:51:12;4.22;;;2.30;;
46777;SDS011;32536;47.128;8.746;2023-02-07T02:53:39;2.83;;;1.85;;
46777;SDS011;32536;47.128;8.746;2023-02-07T02:56:21;3.10;;;2.05;;
46777;SDS011;32536;47.128;8.746;2023-02-07T03:12:57;6.45;;;4.03;;
46777;SDS011;32536;47.128;8.746;2023-02-07T03:15:39;4.72;;;2.65;;
46777;SDS011;32536;47.128;8.746;2023-02-07T03:18:27;4.53;;;2.15;;
46777;SDS011;32536;47.128;8.746;2023-02-07T03:21:00;3.55;;;2.47;;
46777;SDS011;32536;47.128;8.746;2023-02-07T03:23:45;3.08;;;1.70;;
46777;SDS011;32536;47.128;8.746;2023-02-07T03:26:14;4.55;;;3.30;;
46777;SDS011;32536;47.128;8.746;2023-02-07T03:28:42;3.17;;;1.83;;
46777;SDS011;32536;47.128;8.746;2023-02-07T03:31:10;3.92;;;3.05;;
46777;SDS011;32536;47.128;8.746;2023-02-07T03:33:40;5.22;;;2.22;;
46777;SDS011;32536;47.128;8.746;2023-02-07T03:36:10;4.43;;;2.55;;
46777;SDS011;32536;47.128;8.746;2023-02-07T03:38:48;4.28;;;2.33;;
46777;SDS011;32536;47.128;8.746;2023-02-07T03:44:07;3.65;;;2.20;;
46777;SDS011;32536;47.128;8.746;2023-02-07T03:46:37;3.50;;;2.28;;
46777;SDS011;32536;47.128;8.746;2023-02-07T03:49:05;4.95;;;2.00;;
46777;SDS011;32536;47.128;8.746;2023-02-07T03:51:33;3.80;;;2.58;;
46777;SDS011;32536;47.128;8.746;2023-02-07T03:54:01;3.75;;;2.17;;
46777;SDS011;32536;47.128;8.746;2023-02-07T03:56:28;4.55;;;2.60;;
46777;SDS011;32536;47.128;8.746;2023-02-07T03:58:55;3.17;;;1.63;;
46777;SDS011;32536;47.128;8.746;2023-02-07T04:01:22;3.13;;;2.05;;
46777;SDS011;32536;47.128;8.746;2023-02-07T04:03:49;4.22;;;2.17;;
46777;SDS011;32536;47.128;8.746;2023-02-07T04:06:15;3.38;;;1.85;;
46777;SDS011;32536;47.128;8.746;2023-02-07T04:08:42;6.75;;;3.50;;
46777;SDS011;32536;47.128;8.746;2023-02-07T04:11:09;6.40;;;3.70;;
46777;SDS011;32536;47.128;8.746;2023-02-07T04:13:35;6.35;;;3.42;;
46777;SDS011;32536;47.128;8.746;2023-02-07T04:16:03;7.10;;;3.63;;
46777;SDS011;32536;47.128;8.746;2023-02-07T04:18:31;6.72;;;3.13;;
46777;SDS011;32536;47.128;8.746;2023-02-07T04:20:59;4.35;;;2.45;;
46777;SDS011;32536;47.128;8.746;2023-02-07T04:23:28;3.60;;;2.38;;
46777;SDS011;32536;47.128;8.746;2023-02-07T04:25:55;3.75;;;2.45;;
46777;SDS011;32536;47.128;8.746;2023-02-07T04:28:22;3.40;;;2.15;;
46777;SDS011;32536;47.128;8.746;2023-02-07T04:30:50;4.18;;;2.15;;
46777;SDS011;32536;47.128;8.746;2023-02-07T04:33:17;3.67;;;2.13;;
46777;SDS011;32536;47.128;8.746;2023-02-07T04:38:38;3.67;;;1.98;;
46777;SDS011;32536;47.128;8.746;2023-02-07T04:41:05;6.05;;;2.63;;
46777;SDS011;32536;47.128;8.746;2023-02-07T04:43:33;5.03;;;1.75;;
46777;SDS011;32536;47.128;8.746;2023-02-07T04:46:03;6.65;;;3.50;;
46777;SDS011;32536;47.128;8.746;2023-02-07T04:48:31;6.97;;;3.85;;
46777;SDS011;32536;47.128;8.746;2023-02-07T04:50:58;4.78;;;2.63;;
46777;SDS011;32536;47.128;8.746;2023-02-07T04:53:25;6.90;;;3.00;;
46777;SDS011;32536;47.128;8.746;2023-02-07T04:55:52;5.32;;;2.33;;
46777;SDS011;32536;47.128;8.746;2023-02-07T04:58:20;4.95;;;2.38;;
46777;SDS011;32536;47.128;8.746;2023-02-07T05:00:48;6.00;;;2.17;;
46777;SDS011;32536;47.128;8.746;2023-02-07T05:03:14;3.35;;;2.40;;
46777;SDS011;32536;47.128;8.746;2023-02-07T05:05:41;4.07;;;1.98;;
46777;SDS011;32536;47.128;8.746;2023-02-07T05:08:10;2.72;;;1.70;;
46777;SDS011;32536;47.128;8.746;2023-02-07T05:10:37;3.20;;;2.17;;
46777;SDS011;32536;47.128;8.746;2023-02-07T05:13:05;3.20;;;1.85;;
46777;SDS011;32536;47.128;8.746;2023-02-07T05:15:32;3.70;;;1.77;;
46777;SDS011;32536;47.128;8.746;2023-02-07T05:17:59;4.32;;;2.88;;
46777;SDS011;32536;47.128;8.746;2023-02-07T05:20:26;5.10;;;2.88;;
46777;SDS011;32536;47.128;8.746;2023-02-07T05:22:53;4.43;;;2.55;;
46777;SDS011;32536;47.128;8.746;2023-02-07T05:25:20;4.55;;;2.72;;
46777;SDS011;32536;47.128;8.746;2023-02-07T05:27:46;5.75;;;3.47;;
46777;SDS011;32536;47.128;8.746;2023-02-07T05:30:13;4.97;;;2.83;;
46777;SDS011;32536;47.128;8.746;2023-02-07T05:32:40;5.90;;;2.22;;
46777;SDS011;32536;47.128;8.746;2023-02-07T05:35:25;3.75;;;2.33;;
46777;SDS011;32536;47.128;8.746;2023-02-07T05:37:52;3.13;;;1.52;;
46777;SDS011;32536;47.128;8.746;2023-02-07T05:40:19;2.88;;;1.67;;
46777;SDS011;32536;47.128;8.746;2023-02-07T05:42:45;2.40;;;1.88;;
46777;SDS011;32536;47.128;8.746;2023-02-07T05:45:12;2.30;;;1.73;;
46777;SDS011;32536;47.128;8.746;2023-02-07T05:47:39;2.08;;;1.90;;
46777;SDS011;32536;47.128;8.746;2023-02-07T05:50:06;2.47;;;1.90;;
46777;SDS011;32536;47.128;8.746;2023-02-07T05:52:33;3.35;;;2.33;;
46777;SDS011;32536;47.128;8.746;2023-02-07T05:55:00;3.63;;;2.45;;
46777;SDS011;32536;47.128;8.746;2023-02-07T05:57:27;3.88;;;2.22;;
46777;SDS011;32536;47.128;8.746;2023-02-07T05:59:54;3.70;;;2.40;;
46777;SDS011;32536;47.128;8.746;2023-02-07T06:02:21;3.70;;;1.67;;
46777;SDS011;32536;47.128;8.746;2023-02-07T06:04:48;2.45;;;1.77;;
46777;SDS011;32536;47.128;8.746;2023-02-07T06:07:14;2.45;;;1.95;;
46777;SDS011;32536;47.128;8.746;2023-02-07T06:09:41;2.72;;;1.67;;
46777;SDS011;32536;47.128;8.746;2023-02-07T06:12:08;2.88;;;1.95;;
46777;SDS011;32536;47.128;8.746;2023-02-07T06:14:35;3.08;;;1.80;;
46777;SDS011;32536;47.128;8.746;2023-02-07T06:17:01;3.40;;;1.65;;
46777;SDS011;32536;47.128;8.746;2023-02-07T06:19:28;2.58;;;1.80;;
46777;SDS011;32536;47.128;8.746;2023-02-07T06:21:55;2.30;;;1.80;;
46777;SDS011;32536;47.128;8.746;2023-02-07T06:24:22;4.20;;;2.03;;
46777;SDS011;32536;47.128;8.746;2023-02-07T06:26:48;3.42;;;1.83;;
46777;SDS011;32536;47.128;8.746;2023-02-07T06:29:15;3.38;;;2.20;;
46777;SDS011;32536;47.128;8.746;2023-02-07T06:31:42;3.47;;;1.85;;
46777;SDS011;32536;47.128;8.746;2023-02-07T06:34:09;4.53;;;2.33;;
46777;SDS011;32536;47.128;8.746;2023-02-07T06:36:36;2.53;;;1.90;;
46777;SDS011;32536;47.128;8.746;2023-02-07T06:39:02;4.03;;;1.95;;
46777;SDS011;32536;47.128;8.746;2023-02-07T06:41:29;3.97;;;2.70;;
46777;SDS011;32536;47.128;8.746;2023-02-07T06:43:56;4.53;;;2.63;;
46777;SDS011;32536;47.128;8.746;2023-02-07T06:46:23;3.28;;;2.13;;
46777;SDS011;32536;47.128;8.746;2023-02-07T06:48:50;3.67;;;2.72;;
46777;SDS011;32536;47.128;8.746;2023-02-07T06:51:17;2.70;;;1.73;;
46777;SDS011;32536;47.128;8.746;2023-02-07T06:53:43;2.45;;;1.58;;
46777;SDS011;32536;47.128;8.746;2023-02-07T06:56:10;4.18;;;2.50;;
46777;SDS011;32536;47.128;8.746;2023-02-07T06:58:37;3.58;;;2.30;;
46777;SDS011;32536;47.128;8.746;2023-02-07T07:01:04;4.75;;;3.67;;
46777;SDS011;32536;47.128;8.746;2023-02-07T07:03:31;3.03;;;1.73;;
46777;SDS011;32536;47.128;8.746;2023-02-07T07:05:58;4.90;;;3.45;;
46777;SDS011;32536;47.128;8.746;2023-02-07T07:08:25;4.00;;;2.42;;
46777;SDS011;32536;47.128;8.746;2023-02-07T07:10:53;5.85;;;3.17;;
46777;SDS011;32536;47.128;8.746;2023-02-07T07:13:21;5.65;;;2.78;;
46777;SDS011;32536;47.128;8.746;2023-02-07T07:15:48;2.65;;;1.85;;
46777;SDS011;32536;47.128;8.746;2023-02-07T07:18:14;3.60;;;2.05;;
46777;SDS011;32536;47.128;8.746;2023-02-07T07:20:41;3.30;;;1.60;;
46777;SDS011;32536;47.128;8.746;2023-02-07T07:23:08;4.15;;;1.85;;
46777;SDS011;32536;47.128;8.746;2023-02-07T07:25:35;4.10;;;2.08;;
46777;SDS011;32536;47.128;8.746;2023-02-07T07:28:01;3.20;;;2.15;;
46777;SDS011;32536;47.128;8.746;2023-02-07T07:30:28;2.67;;;2.22;;
46777;SDS011;32536;47.128;8.746;2023-02-07T07:32:55;3.08;;;2.15;;
46777;SDS011;32536;47.128;8.746;2023-02-07T07:35:22;3.47;;;2.38;;
46777;SDS011;32536;47.128;8.746;2023-02-07T07:37:49;5.43;;;2.05;;
46777;SDS011;32536;47.128;8.746;2023-02-07T07:40:16;3.60;;;2.17;;
46777;SDS011;32536;47.128;8.746;2023-02-07T07:42:42;4.15;;;2.83;;
46777;SDS011;32536;47.128;8.746;2023-02-07T07:45:09;6.70;;;2.88;;
46777;SDS011;32536;47.128;8.746;2023-02-07T07:47:38;5.03;;;2.97;;
46777;SDS011;32536;47.128;8.746;2023-02-07T07:50:05;7.05;;;3.17;;
46777;SDS011;32536;47.128;8.746;2023-02-07T07:52:33;4.70;;;3.35;;
46777;SDS011;32536;47.128;8.746;2023-02-07T07:54:59;3.42;;;2.00;;
46777;SDS011;32536;47.128;8.746;2023-02-07T07:57:26;3.55;;;2.58;;
46777;SDS011;32536;47.128;8.746;2023-02-07T07:59:53;2.90;;;2.03;;
46777;SDS011;32536;47.128;8.746;2023-02-07T08:02:21;5.65;;;3.60;;
46777;SDS011;32536;47.128;8.746;2023-02-07T08:04:49;6.55;;;3.03;;
46777;SDS011;32536;47.128;8.746;2023-02-07T08:07:16;4.32;;;2.47;;
46777;SDS011;32536;47.128;8.746;2023-02-07T08:09:43;5.50;;;2.75;;
46777;SDS011;32536;47.128;8.746;2023-02-07T08:12:10;8.20;;;3.53;;
46777;SDS011;32536;47.128;8.746;2023-02-07T08:14:37;6.00;;;3.17;;
46777;SDS011;32536;47.128;8.746;2023-02-07T08:17:03;10.40;;;3.30;;
46777;SDS011;32536;47.128;8.746;2023-02-07T08:19:30;5.95;;;3.20;;
46777;SDS011;32536;47.128;8.746;2023-02-07T08:21:57;6.18;;;3.88;;
46777;SDS011;32536;47.128;8.746;2023-02-07T08:24:24;4.47;;;2.60;;
46777;SDS011;32536;47.128;8.746;2023-02-07T08:26:52;8.05;;;2.88;;
46777;SDS011;32536;47.128;8.746;2023-02-07T08:29:19;7.97;;;3.03;;
46777;SDS011;32536;47.128;8.746;2023-02-07T08:31:46;9.45;;;3.63;;
46777;SDS011;32536;47.128;8.746;2023-02-07T08:34:13;7.90;;;3.42;;
46777;SDS011;32536;47.128;8.746;2023-02-07T08:36:40;5.68;;;2.85;;
46777;SDS011;32536;47.128;8.746;2023-02-07T08:39:07;6.63;;;2.85;;
46777;SDS011;32536;47.128;8.746;2023-02-07T08:41:34;5.22;;;3.03;;
46777;SDS011;32536;47.128;8.746;2023-02-07T08:44:00;5.68;;;2.63;;
46777;SDS011;32536;47.128;8.746;2023-02-07T08:46:27;4.05;;;2.83;;
46777;SDS011;32536;47.128;8.746;2023-02-07T08:48:54;3.90;;;2.40;;
46777;SDS011;32536;47.128;8.746;2023-02-07T08:51:21;2.85;;;1.83;;
46777;SDS011;32536;47.128;8.746;2023-02-07T08:53:47;2.45;;;1.85;;
46777;SDS011;32536;47.128;8.746;2023-02-07T08:56:14;2.92;;;2.03;;
46777;SDS011;32536;47.128;8.746;2023-02-07T08:58:41;5.03;;;2.40;;
46777;SDS011;32536;47.128;8.746;2023-02-07T09:01:08;2.45;;;1.20;;
46777;SDS011;32536;47.128;8.746;2023-02-07T09:03:36;3.00;;;1.55;;
46777;SDS011;32536;47.128;8.746;2023-02-07T09:06:04;3.85;;;2.22;;
46777;SDS011;32536;47.128;8.746;2023-02-07T09:08:31;3.90;;;1.92;;
46777;SDS011;32536;47.128;8.746;2023-02-07T09:10:58;3.08;;;1.77;;
46777;SDS011;32536;47.128;8.746;2023-02-07T09:13:25;3.83;;;2.15;;
46777;SDS011;32536;47.128;8.746;2023-02-07T09:15:53;3.80;;;3.03;;
46777;SDS011;32536;47.128;8.746;2023-02-07T09:18:21;2.70;;;2.00;;
46777;SDS011;32536;47.128;8.746;2023-02-07T09:20:50;2.67;;;1.58;;
46777;SDS011;32536;47.128;8.746;2023-02-07T09:23:17;4.75;;;2.15;;
46777;SDS011;32536;47.128;8.746;2023-02-07T09:25:46;7.97;;;2.08;;
46777;SDS011;32536;47.128;8.746;2023-02-07T09:28:17;3.13;;;1.85;;
46777;SDS011;32536;47.128;8.746;2023-02-07T09:30:46;4.97;;;2.05;;
46777;SDS011;32536;47.128;8.746;2023-02-07T09:33:14;2.88;;;1.98;;
46777;SDS011;32536;47.128;8.746;2023-02-07T09:35:42;4.03;;;2.00;;
46777;SDS011;32536;47.128;8.746;2023-02-07T09:38:12;2.67;;;1.70;;
46777;SDS011;32536;47.128;8.746;2023-02-07T09:40:41;3.95;;;2.13;;
46777;SDS011;32536;47.128;8.746;2023-02-07T09:43:19;4.13;;;2.35;;
46777;SDS011;32536;47.128;8.746;2023-02-07T09:46:11;4.88;;;2.83;;
46777;SDS011;32536;47.128;8.746;2023-02-07T09:48:51;4.93;;;2.63;;
46777;SDS011;32536;47.128;8.746;2023-02-07T09:51:29;4.28;;;2.00;;
46777;SDS011;32536;47.128;8.746;2023-02-07T09:54:03;2.63;;;1.70;;
46777;SDS011;32536;47.128;8.746;2023-02-07T09:56:47;2.90;;;1.92;;
46777;SDS011;32536;47.128;8.746;2023-02-07T10:02:15;3.90;;;2.45;;
46777;SDS011;32536;47.128;8.746;2023-02-07T10:05:02;4.32;;;2.55;;
46777;SDS011;32536;47.128;8.746;2023-02-07T10:07:43;3.53;;;1.90;;
46777;SDS011;32536;47.128;8.746;2023-02-07T10:10:13;4.03;;;1.85;;
46777;SDS011;32536;47.128;8.746;2023-02-07T10:30:48;3.30;;;2.17;;
46777;SDS011;32536;47.128;8.746;2023-02-07T10:33:21;2.83;;;1.92;;
46777;SDS011;32536;47.128;8.746;2023-02-07T10:35:55;2.80;;;1.75;;
46777;SDS011;32536;47.128;8.746;2023-02-07T10:41:19;4.68;;;2.10;;
46777;SDS011;32536;47.128;8.746;2023-02-07T10:44:06;3.10;;;1.35;;
46777;SDS011;32536;47.128;8.746;2023-02-07T10:46:39;3.15;;;1.73;;
46777;SDS011;32536;47.128;8.746;2023-02-07T10:49:18;2.15;;;1.58;;
46777;SDS011;32536;47.128;8.746;2023-02-07T10:51:50;3.28;;;1.85;;
46777;SDS011;32536;47.128;8.746;2023-02-07T10:54:21;3.92;;;2.15;;
46777;SDS011;32536;47.128;8.746;2023-02-07T10:56:50;4.22;;;2.53;;
46777;SDS011;32536;47.128;8.746;2023-02-07T10:59:39;4.53;;;1.65;;
46777;SDS011;32536;47.128;8.746;2023-02-07T11:04:54;8.02;;;4.18;;
46777;SDS011;32536;47.128;8.746;2023-02-07T11:07:30;8.25;;;4.15;;
46777;SDS011;32536;47.128;8.746;2023-02-07T11:12:46;7.28;;;3.40;;
46777;SDS011;32536;47.128;8.746;2023-02-07T11:15:19;8.00;;;4.43;;
46777;SDS011;32536;47.128;8.746;2023-02-07T11:17:56;8.10;;;4.18;;
46777;SDS011;32536;47.128;8.746;2023-02-07T11:20:28;7.57;;;3.63;;
46777;SDS011;32536;47.128;8.746;2023-02-07T11:23:06;7.25;;;4.03;;
46777;SDS011;32536;47.128;8.746;2023-02-07T11:25:42;7.30;;;3.50;;
46777;SDS011;32536;47.128;8.746;2023-02-07T11:28:30;7.78;;;3.72;;
46777;SDS011;32536;47.128;8.746;2023-02-07T11:31:02;11.13;;;5.97;;
46777;SDS011;32536;47.128;8.746;2023-02-07T11:33:35;9.52;;;4.85;;
46777;SDS011;32536;47.128;8.746;2023-02-07T11:36:03;9.45;;;5.25;;
46777;SDS011;32536;47.128;8.746;2023-02-07T11:39:11;12.82;;;5.63;;
46777;SDS011;32536;47.128;8.746;2023-02-07T11:41:57;10.20;;;5.53;;
46777;SDS011;32536;47.128;8.746;2023-02-07T11:44:27;10.02;;;5.38;;
46777;SDS011;32536;47.128;8.746;2023-02-07T11:46:57;9.60;;;5.00;;
46777;SDS011;32536;47.128;8.746;2023-02-07T11:49:37;10.32;;;6.53;;
46777;SDS011;32536;47.128;8.746;2023-02-07T11:52:10;8.95;;;4.70;;
46777;SDS011;32536;47.128;8.746;2023-02-07T11:54:38;12.43;;;6.07;;
46777;SDS011;32536;47.128;8.746;2023-02-07T11:57:12;9.93;;;5.10;;
46777;SDS011;32536;47.128;8.746;2023-02-07T11:59:45;9.73;;;4.32;;
46777;SDS011;32536;47.128;8.746;2023-02-07T12:02:35;7.72;;;3.63;;
46777;SDS011;32536;47.128;8.746;2023-02-07T12:05:14;8.25;;;4.10;;
46777;SDS011;32536;47.128;8.746;2023-02-07T12:07:49;6.80;;;3.40;;
46777;SDS011;32536;47.128;8.746;2023-02-07T12:10:28;7.45;;;5.07;;
46777;SDS011;32536;47.128;8.746;2023-02-07T12:13:20;9.75;;;3.85;;
46777;SDS011;32536;47.128;8.746;2023-02-07T12:15:55;7.75;;;3.78;;
46777;SDS011;32536;47.128;8.746;2023-02-07T12:18:41;5.55;;;2.88;;
46777;SDS011;32536;47.128;8.746;2023-02-07T12:24:13;7.05;;;3.05;;
46777;SDS011;32536;47.128;8.746;2023-02-07T12:38:24;8.43;;;3.28;;
46777;SDS011;32536;47.128;8.746;2023-02-07T12:41:08;6.35;;;2.78;;
46777;SDS011;32536;47.128;8.746;2023-02-07T12:46:51;5.28;;;2.88;;
46777;SDS011;32536;47.128;8.746;2023-02-07T12:55:18;6.03;;;2.20;;
46777;SDS011;32536;47.128;8.746;2023-02-07T13:01:06;5.28;;;2.53;;
46777;SDS011;32536;47.128;8.746;2023-02-07T13:04:05;4.30;;;1.98;;
46777;SDS011;32536;47.128;8.746;2023-02-07T13:12:43;6.60;;;3.92;;
46777;SDS011;32536;47.128;8.746;2023-02-07T13:23:48;4.22;;;2.10;;
46777;SDS011;32536;47.128;8.746;2023-02-07T13:26:21;5.32;;;2.10;;
46777;SDS011;32536;47.128;8.746;2023-02-07T13:28:52;5.32;;;3.10;;
46777;SDS011;32536;47.128;8.746;2023-02-07T13:31:42;4.22;;;2.22;;
46777;SDS011;32536;47.128;8.746;2023-02-07T13:34:26;4.40;;;2.10;;
46777;SDS011;32536;47.128;8.746;2023-02-07T13:36:59;6.35;;;1.88;;
46777;SDS011;32536;47.128;8.746;2023-02-07T13:49:04;4.93;;;2.42;;
46777;SDS011;32536;47.128;8.746;2023-02-07T13:51:21;6.97;;;3.28;;
46777;SDS011;32536;47.128;8.746;2023-02-07T13:57:00;4.10;;;2.10;;
46777;SDS011;32536;47.128;8.746;2023-02-07T14:02:49;5.35;;;2.53;;
46777;SDS011;32536;47.128;8.746;2023-02-07T14:05:20;4.53;;;2.05;;
46777;SDS011;32536;47.128;8.746;2023-02-07T14:08:00;5.72;;;2.15;;
46777;SDS011;32536;47.128;8.746;2023-02-07T14:10:36;4.82;;;2.35;;
46777;SDS011;32536;47.128;8.746;2023-02-07T14:18:39;4.40;;;2.15;;
46777;SDS011;32536;47.128;8.746;2023-02-07T14:34:27;4.13;;;2.25;;
46777;SDS011;32536;47.128;8.746;2023-02-07T14:36:57;3.90;;;2.13;;
46777;SDS011;32536;47.128;8.746;2023-02-07T14:39:26;3.90;;;2.00;;
46777;SDS011;32536;47.128;8.746;2023-02-07T14:42:14;4.30;;;2.63;;
46777;SDS011;32536;47.128;8.746;2023-02-07T14:44:44;4.25;;;1.85;;
46777;SDS011;32536;47.128;8.746;2023-02-07T14:47:25;4.07;;;1.95;;
46777;SDS011;32536;47.128;8.746;2023-02-07T14:49:57;3.78;;;2.08;;
46777;SDS011;32536;47.128;8.746;2023-02-07T14:52:26;3.72;;;1.83;;
46777;SDS011;32536;47.128;8.746;2023-02-07T15:03:15;4.43;;;2.30;;
46777;SDS011;32536;47.128;8.746;2023-02-07T15:05:48;4.32;;;1.92;;
46777;SDS011;32536;47.128;8.746;2023-02-07T15:08:18;4.90;;;2.13;;
46777;SDS011;32536;47.128;8.746;2023-02-07T15:11:08;4.93;;;2.05;;
46777;SDS011;32536;47.128;8.746;2023-02-07T15:13:39;8.38;;;3.28;;
46777;SDS011;32536;47.128;8.746;2023-02-07T15:18:39;5.65;;;3.20;;
46777;SDS011;32536;47.128;8.746;2023-02-07T15:24:07;6.53;;;3.40;;
46777;SDS011;32536;47.128;8.746;2023-02-07T15:26:48;6.53;;;3.53;;
46777;SDS011;32536;47.128;8.746;2023-02-07T15:29:20;5.75;;;3.42;;
46777;SDS011;32536;47.128;8.746;2023-02-07T15:31:57;9.25;;;2.97;;
46777;SDS011;32536;47.128;8.746;2023-02-07T15:34:30;6.90;;;3.65;;
46777;SDS011;32536;47.128;8.746;2023-02-07T15:37:10;6.82;;;3.42;;
46777;SDS011;32536;47.128;8.746;2023-02-07T15:39:41;7.00;;;4.45;;
46777;SDS011;32536;47.128;8.746;2023-02-07T15:42:10;6.65;;;3.25;;
46777;SDS011;32536;47.128;8.746;2023-02-07T15:44:49;5.00;;;2.72;;
46777;SDS011;32536;47.128;8.746;2023-02-07T15:50:37;5.13;;;2.72;;
46777;SDS011;32536;47.128;8.746;2023-02-07T15:52:52;6.40;;;2.97;;
46777;SDS011;32536;47.128;8.746;2023-02-07T15:58:00;5.25;;;2.72;;
46777;SDS011;32536;47.128;8.746;2023-02-07T16:00:36;5.43;;;2.92;;
46777;SDS011;32536;47.128;8.746;2023-02-07T16:03:06;6.38;;;3.40;;
46777;SDS011;32536;47.128;8.746;2023-02-07T16:05:43;5.70;;;2.95;;
46777;SDS011;32536;47.128;8.746;2023-02-07T16:08:29;7.35;;;3.53;;
46777;SDS011;32536;47.128;8.746;2023-02-07T16:13:44;6.07;;;3.22;;
46777;SDS011;32536;47.128;8.746;2023-02-07T16:16:31;7.47;;;2.90;;
46777;SDS011;32536;47.128;8.746;2023-02-07T16:24:35;8.77;;;4.32;;
46777;SDS011;32536;47.128;8.746;2023-02-07T16:27:05;6.65;;;3.22;;
46777;SDS011;32536;47.128;8.746;2023-02-07T16:29:34;7.57;;;3.95;;
46777;SDS011;32536;47.128;8.746;2023-02-07T16:32:01;8.02;;;4.30;;
46777;SDS011;32536;47.128;8.746;2023-02-07T16:34:28;7.68;;;4.03;;
46777;SDS011;32536;47.128;8.746;2023-02-07T16:36:55;10.48;;;4.88;;
46777;SDS011;32536;47.128;8.746;2023-02-07T16:39:22;10.52;;;5.82;;
46777;SDS011;32536;47.128;8.746;2023-02-07T16:41:50;11.75;;;6.38;;
46777;SDS011;32536;47.128;8.746;2023-02-07T16:44:22;11.00;;;5.63;;
46777;SDS011;32536;47.128;8.746;2023-02-07T16:46:50;13.35;;;7.15;;
46777;SDS011;32536;47.128;8.746;2023-02-07T16:49:21;7.32;;;4.07;;
46777;SDS011;32536;47.128;8.746;2023-02-07T16:51:50;9.20;;;5.10;;
46777;SDS011;32536;47.128;8.746;2023-02-07T16:54:18;10.23;;;4.78;;
46777;SDS011;32536;47.128;8.746;2023-02-07T16:56:45;11.50;;;5.78;;
46777;SDS011;32536;47.128;8.746;2023-02-07T16:59:16;10.32;;;5.78;;
46777;SDS011;32536;47.128;8.746;2023-02-07T17:01:49;9.23;;;4.45;;
46777;SDS011;32536;47.128;8.746;2023-02-07T17:04:17;8.88;;;5.60;;
46777;SDS011;32536;47.128;8.746;2023-02-07T17:06:45;8.57;;;5.03;;
46777;SDS011;32536;47.128;8.746;2023-02-07T17:09:16;12.07;;;6.88;;
46777;SDS011;32536;47.128;8.746;2023-02-07T17:11:44;8.40;;;4.53;;
46777;SDS011;32536;47.128;8.746;2023-02-07T17:14:11;12.85;;;5.28;;
46777;SDS011;32536;47.128;8.746;2023-02-07T17:16:39;7.15;;;4.25;;
46777;SDS011;32536;47.128;8.746;2023-02-07T17:19:13;7.15;;;3.42;;
46777;SDS011;32536;47.128;8.746;2023-02-07T17:21:43;8.80;;;3.72;;
46777;SDS011;32536;47.128;8.746;2023-02-07T17:24:11;8.23;;;3.80;;
46777;SDS011;32536;47.128;8.746;2023-02-07T17:26:38;6.38;;;3.20;;
46777;SDS011;32536;47.128;8.746;2023-02-07T17:29:11;5.70;;;3.10;;
46777;SDS011;32536;47.128;8.746;2023-02-07T17:31:40;7.50;;;3.35;;
46777;SDS011;32536;47.128;8.746;2023-02-07T17:34:08;8.55;;;3.35;;
46777;SDS011;32536;47.128;8.746;2023-02-07T17:39:26;6.13;;;3.70;;
46777;SDS011;32536;47.128;8.746;2023-02-07T17:41:53;8.38;;;4.30;;
46777;SDS011;32536;47.128;8.746;2023-02-07T17:44:20;9.35;;;4.97;;
46777;SDS011;32536;47.128;8.746;2023-02-07T17:46:49;10.48;;;5.35;;
46777;SDS011;32536;47.128;8.746;2023-02-07T17:49:16;10.82;;;5.45;;
46777;SDS011;32536;47.128;8.746;2023-02-07T17:51:43;8.68;;;5.25;;
46777;SDS011;32536;47.128;8.746;2023-02-07T17:54:10;8.07;;;4.00;;
46777;SDS011;32536;47.128;8.746;2023-02-07T17:56:36;6.65;;;3.88;;
46777;SDS011;32536;47.128;8.746;2023-02-07T17:59:04;6.53;;;3.47;;
46777;SDS011;32536;47.128;8.746;2023-02-07T18:01:34;7.15;;;3.42;;
46777;SDS011;32536;47.128;8.746;2023-02-07T18:04:01;9.32;;;4.50;;
46777;SDS011;32536;47.128;8.746;2023-02-07T18:06:29;9.80;;;5.32;;
46777;SDS011;32536;47.128;8.746;2023-02-07T18:08:56;9.00;;;4.45;;